Time;durP1;ratioP1;P1;durP2;ratioP2;P2;SDS_P1;SDS_P2;PMS_P1;PMS_P2;Temp;Humidity;BMP_temperature;BMP_pressure;BME280_temperature;BME280_humidity;BME280_pressure;Samples;Min_cycle;Max_cycle;Signal;HPM_P1;HPM_P2
2023/04/18 00:00:17;;;;;;;11.43;7.95;;;9.30;99.90;;;;;;5017017;28;20453;-83
2023/04/18 00:02:44;;;;;;;10.00;6.53;;;9.30;99.90;;;;;;5021204;28;20036;-82
2023/04/18 00:05:11;;;;;;;12.68;7.40;;;9.20;99.90;;;;;;5022041;28;20033;-81
2023/04/18 00:07:37;;;;;;;10.35;7.22;;;9.20;99.90;;;;;;5017506;28;20122;-83
2023/04/18 00:10:04;;;;;;;10.68;7.20;;;9.10;99.90;;;;;;5020444;28;20032;-82
2023/04/18 00:12:30;;;;;;;9.73;6.93;;;9.10;99.90;;;;;;5020924;28;20565;-82
2023/04/18 00:14:57;;;;;;;9.27;6.93;;;9.00;99.90;;;;;;5021407;28;20033;-83
2023/04/18 00:17:25;;;;;;;11.70;6.63;;;9.00;99.90;;;;;;5020497;28;20084;-82
2023/04/18 00:19:51;;;;;;;12.20;7.53;;;9.00;99.90;;;;;;5023001;28;20023;-81
2023/04/18 00:22:21;;;;;;;14.57;7.28;;;8.90;99.90;;;;;;5022212;28;20391;-81
2023/04/18 00:24:50;;;;;;;11.20;7.15;;;8.90;99.90;;;;;;5026160;28;20021;-83
2023/04/18 00:27:19;;;;;;;9.38;6.35;;;8.90;99.90;;;;;;5019265;28;20017;-81
2023/04/18 00:29:45;;;;;;;10.20;6.82;;;8.90;99.90;;;;;;5018883;28;20036;-83
2023/04/18 00:32:11;;;;;;;10.88;6.80;;;8.80;99.90;;;;;;5021048;28;20044;-83
2023/04/18 00:34:37;;;;;;;9.07;6.72;;;8.80;99.90;;;;;;5016188;28;20034;-83
2023/04/18 00:37:03;;;;;;;8.00;5.82;;;8.70;99.90;;;;;;5016997;28;20018;-81
2023/04/18 00:39:28;;;;;;;7.70;5.15;;;8.70;99.90;;;;;;5017482;28;20033;-82
2023/04/18 00:41:54;;;;;;;8.82;5.78;;;8.60;99.90;;;;;;5020393;28;20021;-82
2023/04/18 00:44:19;;;;;;;10.50;6.60;;;8.60;99.90;;;;;;5015239;28;20485;-85
2023/04/18 00:46:45;;;;;;;11.23;6.45;;;8.60;99.90;;;;;;5014791;28;20053;-80
2023/04/18 00:49:11;;;;;;;10.15;6.88;;;8.50;99.90;;;;;;5019540;28;20104;-81
2023/04/18 00:51:37;;;;;;;10.75;7.18;;;8.40;99.90;;;;;;5013723;28;20018;-83
2023/04/18 00:54:06;;;;;;;9.48;6.70;;;8.50;99.90;;;;;;5017600;28;20395;-83
2023/04/18 00:56:34;;;;;;;8.55;6.30;;;8.40;99.90;;;;;;5021390;28;20103;-81
2023/04/18 00:59:00;;;;;;;10.52;6.30;;;8.30;99.90;;;;;;5017297;28;20503;-82
2023/04/18 01:01:26;;;;;;;9.80;6.25;;;8.30;99.90;;;;;;5019285;28;20079;-81
2023/04/18 01:03:51;;;;;;;10.32;7.15;;;8.30;99.90;;;;;;5019920;28;20079;-83
2023/04/18 01:06:17;;;;;;;8.13;5.88;;;8.20;99.90;;;;;;5022458;28;20030;-83
2023/04/18 01:08:44;;;;;;;8.20;5.47;;;8.20;99.90;;;;;;5022810;28;20116;-83
2023/04/18 01:11:09;;;;;;;8.57;5.75;;;8.20;99.90;;;;;;5024552;28;20037;-82
2023/04/18 01:13:35;;;;;;;9.07;5.55;;;8.10;99.90;;;;;;5021331;28;20391;-84
2023/04/18 01:16:01;;;;;;;9.82;5.78;;;8.00;99.90;;;;;;5023292;28;22419;-83
2023/04/18 01:18:26;;;;;;;8.32;5.72;;;8.00;99.90;;;;;;5022254;28;20045;-82
2023/04/18 01:20:58;;;;;;;9.23;5.85;;;8.00;99.90;;;;;;5022811;28;20046;-82
2023/04/18 01:23:27;;;;;;;11.60;5.88;;;8.00;99.90;;;;;;5025023;28;20033;-82
2023/04/18 01:25:52;;;;;;;8.60;5.53;;;8.00;99.90;;;;;;5020474;28;20049;-83
2023/04/18 01:28:21;;;;;;;10.00;6.10;;;7.90;99.90;;;;;;5025292;28;20013;-83
2023/04/18 01:30:47;;;;;;;8.82;5.47;;;7.90;99.90;;;;;;5021495;28;20507;-82
2023/04/18 01:33:12;;;;;;;7.00;5.07;;;7.90;99.90;;;;;;5022128;28;20063;-83
2023/04/18 01:35:38;;;;;;;6.43;4.65;;;7.80;99.90;;;;;;5020038;28;20029;-82
2023/04/18 01:38:03;;;;;;;8.52;5.38;;;7.80;99.90;;;;;;5021229;28;20041;-83
2023/04/18 01:40:29;;;;;;;9.48;6.20;;;7.70;99.90;;;;;;5017483;28;20033;-83
2023/04/18 01:42:55;;;;;;;9.10;5.97;;;7.70;99.90;;;;;;5023259;28;20067;-83
2023/04/18 01:45:21;;;;;;;9.73;6.63;;;7.70;99.90;;;;;;5015940;28;20025;-82
2023/04/18 01:47:46;;;;;;;9.27;6.40;;;7.70;99.90;;;;;;5021659;28;20060;-83
2023/04/18 01:50:12;;;;;;;7.57;5.93;;;7.70;99.90;;;;;;5020382;28;20492;-82
2023/04/18 01:52:38;;;;;;;9.90;6.10;;;7.60;99.90;;;;;;5019028;28;20391;-83
2023/04/18 01:55:05;;;;;;;8.35;6.03;;;7.60;99.90;;;;;;5019153;28;20099;-82
2023/04/18 01:57:31;;;;;;;8.48;5.78;;;7.50;99.90;;;;;;5022145;28;20029;-81
2023/04/18 01:59:57;;;;;;;8.55;5.93;;;7.50;99.90;;;;;;5020105;28;20075;-82
2023/04/18 02:02:25;;;;;;;9.93;6.28;;;7.50;99.90;;;;;;5022460;28;20037;-83
2023/04/18 02:04:51;;;;;;;9.77;6.55;;;7.50;99.90;;;;;;5022203;28;20029;-83
2023/04/18 02:07:19;;;;;;;10.10;6.80;;;7.40;99.90;;;;;;5022345;28;20055;-82
2023/04/18 02:09:45;;;;;;;10.07;6.78;;;7.40;99.90;;;;;;5032359;28;20021;-82
2023/04/18 02:12:11;;;;;;;9.30;5.97;;;7.40;99.90;;;;;;5022898;28;20050;-84
2023/04/18 02:14:37;;;;;;;10.00;5.18;;;7.40;99.90;;;;;;5023698;28;20028;-83
2023/04/18 02:17:02;;;;;;;9.02;6.15;;;7.40;99.90;;;;;;5023349;28;20418;-83
2023/04/18 02:19:29;;;;;;;8.85;6.13;;;7.30;99.90;;;;;;5022373;28;20029;-84
2023/04/18 02:21:55;;;;;;;9.27;6.20;;;7.30;99.90;;;;;;5022954;28;20045;-84
2023/04/18 02:24:20;;;;;;;8.38;5.75;;;7.30;99.90;;;;;;5020019;28;20042;-83
2023/04/18 02:26:46;;;;;;;8.18;5.68;;;7.20;99.90;;;;;;5023895;28;20022;-84
2023/04/18 02:29:11;;;;;;;8.48;5.35;;;7.20;99.90;;;;;;5022788;28;20387;-84
2023/04/18 02:31:40;;;;;;;9.13;6.25;;;7.20;99.90;;;;;;5020255;28;20030;-83
2023/04/18 02:34:07;;;;;;;8.20;6.15;;;7.20;99.90;;;;;;5025400;28;20472;-82
2023/04/18 02:36:32;;;;;;;8.65;5.65;;;7.10;99.90;;;;;;5024264;28;20049;-82
2023/04/18 02:38:58;;;;;;;8.68;5.68;;;7.10;99.90;;;;;;5026033;28;20710;-82
2023/04/18 02:41:24;;;;;;;8.50;5.68;;;7.10;99.90;;;;;;5021424;28;20038;-83
2023/04/18 02:43:49;;;;;;;7.45;5.18;;;7.10;99.90;;;;;;5019906;28;20026;-82
2023/04/18 02:46:15;;;;;;;9.18;6.00;;;7.00;99.90;;;;;;5021632;28;20032;-82
2023/04/18 02:48:41;;;;;;;9.95;6.35;;;7.00;99.90;;;;;;5021901;28;20033;-82
2023/04/18 02:51:07;;;;;;;9.70;6.50;;;7.00;99.90;;;;;;5020216;28;20417;-82
2023/04/18 02:53:34;;;;;;;10.07;6.75;;;7.00;99.90;;;;;;5020965;28;20022;-84
2023/04/18 02:56:00;;;;;;;10.00;7.18;;;7.00;99.90;;;;;;5021455;28;20045;-83
2023/04/18 02:58:26;;;;;;;9.68;6.78;;;7.00;99.90;;;;;;5022065;28;20022;-83
2023/04/18 03:00:53;;;;;;;9.40;6.25;;;7.00;99.90;;;;;;5021322;28;20033;-82
2023/04/18 03:03:18;;;;;;;8.80;6.28;;;6.90;99.90;;;;;;5019089;28;20040;-81
2023/04/18 03:05:44;;;;;;;9.55;6.25;;;6.90;99.90;;;;;;5020377;28;20025;-83
2023/04/18 03:08:10;;;;;;;9.35;6.47;;;6.90;99.90;;;;;;5017456;28;20056;-84
2023/04/18 03:10:36;;;;;;;8.77;6.32;;;6.90;99.90;;;;;;5017941;28;20033;-83
2023/04/18 03:13:02;;;;;;;10.23;6.97;;;6.80;99.90;;;;;;5017849;28;20095;-81
2023/04/18 03:15:29;;;;;;;10.27;6.97;;;6.80;99.90;;;;;;5019338;28;20104;-84
2023/04/18 03:17:55;;;;;;;9.35;6.50;;;6.80;99.90;;;;;;5021340;28;20026;-82
2023/04/18 03:20:20;;;;;;;10.50;6.57;;;6.80;99.90;;;;;;5020907;28;20017;-80
2023/04/18 03:22:46;;;;;;;9.38;6.00;;;6.70;99.90;;;;;;5020413;28;20061;-81
2023/04/18 03:25:12;;;;;;;9.45;6.95;;;6.70;99.90;;;;;;5018128;28;20037;-83
2023/04/18 03:27:37;;;;;;;9.90;7.00;;;6.70;99.90;;;;;;5018446;28;20101;-82
2023/04/18 03:30:03;;;;;;;12.70;7.70;;;6.70;99.90;;;;;;5018546;28;20057;-81
2023/04/18 03:32:32;;;;;;;9.27;6.78;;;6.70;99.90;;;;;;5017257;28;20103;-82
2023/04/18 03:34:58;;;;;;;9.88;6.97;;;6.60;99.90;;;;;;5018048;28;20043;-82
2023/04/18 03:37:23;;;;;;;11.30;7.25;;;6.60;99.90;;;;;;5017089;28;20021;-83
2023/04/18 03:39:49;;;;;;;10.10;6.85;;;6.60;99.90;;;;;;5021250;28;20030;-82
2023/04/18 03:42:14;;;;;;;12.40;7.60;;;6.60;99.90;;;;;;5022563;28;20040;-79
2023/04/18 03:44:40;;;;;;;11.73;7.20;;;6.60;99.90;;;;;;5017958;28;20029;-82
2023/04/18 03:47:06;;;;;;;11.10;6.80;;;6.60;99.90;;;;;;5017849;28;20025;-82
2023/04/18 03:49:31;;;;;;;10.98;7.68;;;6.60;99.90;;;;;;5016976;28;20026;-82
2023/04/18 03:51:57;;;;;;;10.52;7.22;;;6.70;99.90;;;;;;5014503;28;20476;-80
2023/04/18 03:54:22;;;;;;;10.70;7.07;;;6.80;99.90;;;;;;5015660;28;20388;-82
2023/04/18 03:56:48;;;;;;;9.25;6.40;;;6.80;99.90;;;;;;5017432;28;20526;-82
2023/04/18 03:59:14;;;;;;;10.38;6.63;;;6.90;99.90;;;;;;5015868;28;20017;-81
2023/04/18 04:01:39;;;;;;;11.93;7.10;;;6.90;99.90;;;;;;5017968;28;20033;-82
2023/04/18 04:04:05;;;;;;;10.02;6.90;;;6.90;99.90;;;;;;5017523;28;20533;-82
2023/04/18 04:06:31;;;;;;;9.93;7.03;;;6.90;99.90;;;;;;5016378;28;21344;-82
2023/04/18 04:08:56;;;;;;;11.35;6.85;;;7.00;99.90;;;;;;5014799;28;20621;-82
2023/04/18 04:11:22;;;;;;;9.80;6.70;;;7.00;99.90;;;;;;5015544;28;20033;-81
2023/04/18 04:13:48;;;;;;;9.63;6.70;;;7.00;99.90;;;;;;5032460;28;20472;-82
2023/04/18 04:16:13;;;;;;;8.60;6.20;;;7.10;99.90;;;;;;5019431;28;20041;-82
2023/04/18 04:18:39;;;;;;;11.15;7.80;;;7.10;99.90;;;;;;5017495;28;20061;-81
2023/04/18 04:21:05;;;;;;;12.45;7.22;;;7.10;99.90;;;;;;5016745;28;20061;-82
2023/04/18 04:23:32;;;;;;;9.27;6.47;;;7.10;99.90;;;;;;5015093;28;20083;-82
2023/04/18 04:25:58;;;;;;;10.15;7.70;;;7.10;99.90;;;;;;5015786;28;20103;-82
2023/04/18 04:28:25;;;;;;;11.57;7.30;;;7.20;99.90;;;;;;5015101;28;20025;-83
2023/04/18 04:30:51;;;;;;;11.60;7.15;;;7.20;99.90;;;;;;5013984;28;20485;-81
2023/04/18 04:33:18;;;;;;;9.20;7.07;;;7.20;99.90;;;;;;5014880;28;20105;-81
2023/04/18 04:35:45;;;;;;;11.05;6.90;;;7.20;99.90;;;;;;5017202;28;20083;-81
2023/04/18 04:38:11;;;;;;;11.88;7.45;;;7.20;99.90;;;;;;5015979;28;20025;-82
2023/04/18 04:40:36;;;;;;;11.38;7.57;;;7.30;99.90;;;;;;5014369;28;20037;-81
2023/04/18 04:43:02;;;;;;;11.73;8.70;;;7.30;99.90;;;;;;5015494;28;20525;-82
2023/04/18 04:45:27;;;;;;;11.40;7.85;;;7.30;99.90;;;;;;5014915;28;20022;-81
2023/04/18 04:47:53;;;;;;;9.23;7.18;;;7.30;99.90;;;;;;5015403;28;22122;-82
2023/04/18 04:50:19;;;;;;;9.88;6.65;;;7.40;99.90;;;;;;5015774;28;20145;-82
2023/04/18 04:52:44;;;;;;;8.98;6.05;;;7.40;99.90;;;;;;5016962;28;20053;-83
2023/04/18 04:55:10;;;;;;;10.82;7.45;;;7.40;99.90;;;;;;5017909;28;20483;-82
2023/04/18 04:57:36;;;;;;;10.07;7.00;;;7.40;99.90;;;;;;5016790;28;20172;-82
2023/04/18 05:00:04;;;;;;;10.27;6.50;;;7.40;99.90;;;;;;5016946;28;20383;-81
2023/04/18 05:02:29;;;;;;;9.68;6.88;;;7.40;99.90;;;;;;5014549;28;20528;-82
2023/04/18 05:04:55;;;;;;;9.55;6.60;;;7.40;99.90;;;;;;5018038;28;20050;-82
2023/04/18 05:07:20;;;;;;;10.73;6.68;;;7.40;99.90;;;;;;5017109;28;20022;-82
2023/04/18 05:09:46;;;;;;;9.60;7.32;;;7.40;99.90;;;;;;5016187;28;20131;-82
2023/04/18 05:12:11;;;;;;;9.93;7.07;;;7.30;99.90;;;;;;5015676;28;20124;-80
2023/04/18 05:14:37;;;;;;;10.75;7.28;;;7.20;99.90;;;;;;5016491;28;20532;-81
2023/04/18 05:17:03;;;;;;;9.85;6.95;;;7.20;99.90;;;;;;5030661;28;20442;-81
2023/04/18 05:19:28;;;;;;;11.43;7.47;;;7.10;99.90;;;;;;5020841;28;20034;-83
2023/04/18 05:21:54;;;;;;;10.65;7.90;;;7.20;99.90;;;;;;5019200;28;20116;-82
2023/04/18 05:24:19;;;;;;;11.18;7.10;;;7.10;99.90;;;;;;5019142;28;20041;-82
2023/04/18 05:26:45;;;;;;;11.40;6.80;;;7.20;99.90;;;;;;5018640;28;20033;-83
2023/04/18 05:29:11;;;;;;;11.27;7.57;;;7.20;99.90;;;;;;5019485;28;20026;-82
2023/04/18 05:31:36;;;;;;;12.45;8.35;;;7.30;99.90;;;;;;5016963;28;20099;-83
2023/04/18 05:34:02;;;;;;;11.50;8.00;;;7.30;99.90;;;;;;5014206;28;20163;-82
2023/04/18 05:36:27;;;;;;;10.90;7.93;;;7.40;99.90;;;;;;5015249;28;21013;-81
2023/04/18 05:38:53;;;;;;;11.68;8.15;;;7.50;99.90;;;;;;5018011;28;20419;-81
2023/04/18 05:41:18;;;;;;;11.20;7.75;;;7.50;99.90;;;;;;5014749;28;20394;-83
2023/04/18 05:43:44;;;;;;;8.60;6.22;;;7.60;99.90;;;;;;5015774;28;20029;-82
2023/04/18 05:46:11;;;;;;;10.68;7.65;;;7.60;99.90;;;;;;5019392;28;22402;-82
2023/04/18 05:48:36;;;;;;;10.05;6.53;;;7.70;99.90;;;;;;5015428;28;20029;-81
2023/04/18 05:51:03;;;;;;;12.23;9.38;;;7.70;99.90;;;;;;5018678;28;20025;-82
2023/04/18 05:53:29;;;;;;;11.15;8.15;;;7.70;99.90;;;;;;5019130;28;20029;-83
2023/04/18 05:55:56;;;;;;;10.25;7.38;;;7.80;99.90;;;;;;5018756;28;20056;-81
2023/04/18 05:58:22;;;;;;;12.57;8.73;;;7.90;99.90;;;;;;5022699;28;20052;-81
2023/04/18 06:00:47;;;;;;;11.55;7.47;;;7.90;99.90;;;;;;5016394;28;20451;-81
2023/04/18 06:03:13;;;;;;;10.93;7.82;;;8.00;99.90;;;;;;5017079;28;20163;-81
2023/04/18 06:05:39;;;;;;;10.65;6.75;;;8.10;99.90;;;;;;5021653;28;20053;-81
2023/04/18 06:08:06;;;;;;;11.10;7.43;;;8.20;99.90;;;;;;5022103;28;20384;-81
2023/04/18 06:10:32;;;;;;;9.43;7.10;;;8.20;99.90;;;;;;5019199;28;20041;-83
2023/04/18 06:12:57;;;;;;;10.65;8.45;;;8.30;99.90;;;;;;5018649;28;20050;-85
2023/04/18 06:15:23;;;;;;;9.05;7.15;;;8.30;99.90;;;;;;5015837;28;20022;-82
2023/04/18 06:17:49;;;;;;;8.98;6.55;;;8.30;99.90;;;;;;5019765;28;20026;-82
2023/04/18 06:20:15;;;;;;;11.93;6.97;;;8.40;99.90;;;;;;5022208;28;20464;-80
2023/04/18 06:22:40;;;;;;;9.27;7.18;;;8.50;99.90;;;;;;5020377;28;20030;-81
2023/04/18 06:25:08;;;;;;;12.57;7.82;;;8.50;99.90;;;;;;5020125;28;20104;-82
2023/04/18 06:27:35;;;;;;;14.70;9.38;;;8.50;99.90;;;;;;5020743;28;20041;-81
2023/04/18 06:30:00;;;;;;;11.05;8.10;;;8.60;99.90;;;;;;5023689;28;20029;-83
2023/04/18 06:32:26;;;;;;;11.55;8.40;;;8.60;99.90;;;;;;5019170;28;20030;-84
2023/04/18 06:34:52;;;;;;;11.75;7.90;;;8.70;99.90;;;;;;5020695;28;20036;-81
2023/04/18 06:37:17;;;;;;;10.93;7.93;;;8.70;99.90;;;;;;5019455;28;20025;-84
2023/04/18 06:39:43;;;;;;;10.02;6.72;;;8.80;99.90;;;;;;5020695;28;20029;-84
2023/04/18 06:42:09;;;;;;;9.35;6.78;;;8.80;99.90;;;;;;5025355;28;20049;-83
2023/04/18 06:44:35;;;;;;;8.55;5.97;;;8.90;99.90;;;;;;5024054;28;20029;-84
2023/04/18 06:47:00;;;;;;;9.27;6.60;;;8.90;99.90;;;;;;5024417;28;20049;-82
2023/04/18 06:49:26;;;;;;;9.60;6.60;;;9.00;99.90;;;;;;5019938;28;20056;-82
2023/04/18 06:51:52;;;;;;;8.32;5.95;;;9.00;99.90;;;;;;5015660;28;20017;-81
2023/04/18 06:54:17;;;;;;;8.88;6.32;;;9.10;99.90;;;;;;5015491;28;20104;-80
2023/04/18 06:56:43;;;;;;;10.00;6.97;;;9.10;99.90;;;;;;5017243;28;20096;-80
2023/04/18 06:59:08;;;;;;;9.50;6.45;;;9.20;99.90;;;;;;5020361;28;20104;-83
2023/04/18 07:01:40;;;;;;;10.13;6.50;;;9.20;99.90;;;;;;5018997;28;20416;-82
2023/04/18 07:04:05;;;;;;;9.55;5.90;;;9.30;99.90;;;;;;5016823;28;20105;-82
2023/04/18 07:06:31;;;;;;;8.88;6.32;;;9.20;99.90;;;;;;5020189;28;20453;-80
2023/04/18 07:09:00;;;;;;;7.10;5.18;;;9.30;99.90;;;;;;5015655;28;20025;-79
2023/04/18 07:11:26;;;;;;;7.55;5.47;;;9.30;99.90;;;;;;5016342;28;20053;-82
2023/04/18 07:13:51;;;;;;;8.40;5.43;;;9.40;99.90;;;;;;5018329;28;20025;-80
2023/04/18 07:16:17;;;;;;;7.68;5.28;;;9.40;99.90;;;;;;5016359;28;20038;-83
2023/04/18 07:18:42;;;;;;;11.20;6.45;;;9.40;99.90;;;;;;5016683;28;20030;-82
2023/04/18 07:21:08;;;;;;;7.95;5.93;;;9.40;99.90;;;;;;5020653;28;20157;-83
2023/04/18 07:23:34;;;;;;;11.07;6.40;;;9.40;99.90;;;;;;5016345;28;20040;-81
2023/04/18 07:26:01;;;;;;;10.32;6.88;;;9.30;99.90;;;;;;5016444;28;20121;-81
2023/04/18 07:28:27;;;;;;;7.20;5.28;;;9.30;99.90;;;;;;5015065;28;20071;-80
2023/04/18 07:30:54;;;;;;;7.88;5.85;;;9.30;99.90;;;;;;5016164;28;20030;-81
2023/04/18 07:33:20;;;;;;;8.10;5.78;;;9.40;99.90;;;;;;5018693;28;20030;-81
2023/04/18 07:35:45;;;;;;;7.45;4.80;;;9.40;99.90;;;;;;5013707;28;20022;-80
2023/04/18 07:38:11;;;;;;;9.25;6.03;;;9.50;99.90;;;;;;5016418;28;20108;-81
2023/04/18 07:40:37;;;;;;;8.57;6.10;;;9.50;99.90;;;;;;5014685;28;20041;-80
2023/04/18 07:43:03;;;;;;;7.72;5.57;;;9.50;99.90;;;;;;5019301;28;20345;-81
2023/04/18 07:45:29;;;;;;;6.45;4.57;;;9.60;99.90;;;;;;5016694;28;20357;-80
2023/04/18 07:47:55;;;;;;;7.47;5.32;;;9.60;99.90;;;;;;5017211;28;20187;-82
2023/04/18 07:50:23;;;;;;;8.50;4.72;;;9.70;99.90;;;;;;5014408;28;20552;-81
2023/04/18 07:52:48;;;;;;;7.80;4.85;;;9.70;99.90;;;;;;5018868;28;20024;-84
2023/04/18 07:55:14;;;;;;;7.13;5.13;;;9.70;99.90;;;;;;5020265;28;20033;-81
2023/04/18 07:57:42;;;;;;;7.47;5.75;;;9.80;99.90;;;;;;5016127;28;20025;-81
2023/04/18 08:00:09;;;;;;;8.20;5.72;;;9.70;99.90;;;;;;5019085;28;20044;-80
2023/04/18 08:02:35;;;;;;;6.93;4.82;;;9.80;99.90;;;;;;5018835;28;20107;-81
2023/04/18 08:05:00;;;;;;;7.15;4.78;;;9.80;99.90;;;;;;5021388;28;20495;-82
2023/04/18 08:07:26;;;;;;;9.18;5.75;;;9.90;99.90;;;;;;5019593;28;20049;-84
2023/04/18 08:09:51;;;;;;;8.10;5.68;;;9.90;99.90;;;;;;5018879;28;20023;-83
2023/04/18 08:12:17;;;;;;;9.18;5.78;;;10.00;99.90;;;;;;5024329;28;20049;-83
2023/04/18 08:14:43;;;;;;;7.72;4.50;;;10.10;99.90;;;;;;5015838;28;20135;-81
2023/04/18 08:17:08;;;;;;;7.53;4.93;;;10.20;99.90;;;;;;5019123;28;20447;-81
2023/04/18 08:19:34;;;;;;;8.55;6.25;;;10.30;99.90;;;;;;5018487;28;20392;-84
2023/04/18 08:22:09;;;;;;;7.68;5.28;;;10.40;99.90;;;;;;5024407;28;20044;-81
2023/04/18 08:24:34;;;;;;;7.22;5.13;;;10.40;99.90;;;;;;5024308;28;20392;-83
2023/04/18 08:27:01;;;;;;;7.88;5.28;;;10.40;99.90;;;;;;5021403;28;20495;-82
2023/04/18 08:29:26;;;;;;;6.57;4.90;;;10.50;99.90;;;;;;5021629;28;20730;-82
2023/04/18 08:31:52;;;;;;;6.10;4.60;;;10.60;99.90;;;;;;5022643;28;20022;-81
2023/04/18 08:34:17;;;;;;;6.35;4.35;;;10.60;99.90;;;;;;5018481;28;20032;-82
2023/04/18 08:36:43;;;;;;;6.75;4.65;;;10.70;99.90;;;;;;5019193;28;20040;-81
2023/04/18 08:39:09;;;;;;;8.00;5.40;;;10.80;99.90;;;;;;5017245;28;20454;-83
2023/04/18 08:41:38;;;;;;;6.20;4.43;;;10.90;99.90;;;;;;5017231;28;20033;-83
2023/04/18 08:44:05;;;;;;;6.05;3.83;;;11.00;99.90;;;;;;5019036;28;20108;-82
2023/04/18 08:46:34;;;;;;;5.97;4.30;;;11.20;99.90;;;;;;5018198;28;20034;-81
2023/04/18 08:49:05;;;;;;;5.47;3.97;;;11.50;99.90;;;;;;5017457;28;20033;-84
2023/04/18 08:51:32;;;;;;;6.10;4.32;;;11.70;99.90;;;;;;5019927;28;20430;-81
2023/04/18 08:54:01;;;;;;;6.60;4.28;;;11.70;99.90;;;;;;5021450;28;20395;-82
2023/04/18 08:56:27;;;;;;;7.40;4.80;;;11.80;99.90;;;;;;5019361;28;20030;-83
2023/04/18 08:58:55;;;;;;;6.07;4.45;;;12.00;99.90;;;;;;5019011;28;20025;-82
2023/04/18 09:01:21;;;;;;;6.40;4.00;;;12.10;99.90;;;;;;5015003;28;20650;-80
2023/04/18 09:03:47;;;;;;;6.03;4.03;;;12.20;99.90;;;;;;5021225;28;20026;-83
2023/04/18 09:06:17;;;;;;;7.00;3.63;;;12.40;99.90;;;;;;5015963;28;20506;-84
2023/04/18 09:09:01;;;;;;;5.82;3.75;;;12.50;99.90;;;;;;5015168;28;20029;-81
2023/04/18 09:11:28;;;;;;;6.95;4.63;;;12.60;99.90;;;;;;5020052;28;20558;-82
2023/04/18 09:13:57;;;;;;;6.45;4.03;;;12.40;99.90;;;;;;5020134;28;20033;-82
2023/04/18 09:16:24;;;;;;;4.90;3.30;;;12.30;99.90;;;;;;5014073;28;20469;-84
2023/04/18 09:19:12;;;;;;;4.78;3.22;;;12.30;99.90;;;;;;5018357;28;20037;-82
2023/04/18 09:21:40;;;;;;;5.65;3.33;;;12.30;99.90;;;;;;5019301;28;20034;-82
2023/04/18 09:24:23;;;;;;;5.13;3.13;;;12.40;99.90;;;;;;5020265;28;20152;-82
2023/04/18 09:26:52;;;;;;;;;;;12.40;99.90;;;;;;5021521;28;20056;-82
2023/04/18 09:29:21;;;;;;;5.35;3.35;;;12.40;99.90;;;;;;5020867;28;19909;-81
2023/04/18 09:31:59;;;;;;;4.97;3.33;;;12.40;99.90;;;;;;5021341;28;20033;-83
2023/04/18 09:34:28;;;;;;;4.40;3.40;;;12.40;99.90;;;;;;5022404;28;20641;-84
2023/04/18 09:37:08;;;;;;;6.75;4.10;;;12.40;99.90;;;;;;5023480;28;20041;-81
2023/04/18 09:39:35;;;;;;;5.90;3.92;;;12.40;99.90;;;;;;5028987;28;20108;-84
2023/04/18 09:42:01;;;;;;;5.50;3.55;;;12.40;99.90;;;;;;5022826;28;20827;-82
2023/04/18 09:44:27;;;;;;;4.88;3.53;;;12.40;99.90;;;;;;5022588;28;20079;-82
2023/04/18 09:46:52;;;;;;;7.55;4.10;;;12.40;99.90;;;;;;5024067;28;20031;-83
2023/04/18 09:49:18;;;;;;;5.22;3.53;;;12.50;99.90;;;;;;5024813;28;20021;-83
2023/04/18 09:51:45;;;;;;;4.50;3.30;;;12.70;99.90;;;;;;5022037;28;20028;-80
2023/04/18 09:54:15;;;;;;;5.97;4.00;;;13.00;99.90;;;;;;5024210;28;20132;-81
2023/04/18 09:56:43;;;;;;;5.43;3.67;;;13.30;99.90;;;;;;5022092;28;20442;-84
2023/04/18 09:59:10;;;;;;;4.97;3.17;;;13.50;99.90;;;;;;5018390;28;20029;-83
2023/04/18 10:01:36;;;;;;;6.00;3.28;;;14.30;99.90;;;;;;5021774;28;20140;-82
2023/04/18 10:04:05;;;;;;;5.55;3.80;;;14.90;99.90;;;;;;5017762;28;20029;-82
2023/04/18 10:06:33;;;;;;;4.88;3.33;;;15.60;99.90;;;;;;5021685;28;20026;-82
2023/04/18 10:09:01;;;;;;;4.70;3.33;;;15.80;99.90;;;;;;5017666;28;20542;-82
2023/04/18 10:11:30;;;;;;;7.22;3.70;;;16.60;99.90;;;;;;5020559;28;20038;-83
2023/04/18 10:13:59;;;;;;;5.65;3.05;;;16.90;99.90;;;;;;5022541;28;20121;-82
2023/04/18 10:16:26;;;;;;;4.55;3.00;;;16.70;99.90;;;;;;5020269;28;20030;-81
2023/04/18 10:18:51;;;;;;;5.32;2.88;;;16.70;99.90;;;;;;5025007;28;20062;-84
2023/04/18 10:21:17;;;;;;;4.28;2.88;;;16.90;99.90;;;;;;5022968;28;20084;-82
2023/04/18 10:23:44;;;;;;;4.13;2.65;;;17.10;99.90;;;;;;5026465;28;20075;-82
2023/04/18 10:26:10;;;;;;;5.22;3.30;;;16.90;99.90;;;;;;5018044;28;20030;-81
2023/04/18 10:28:59;;;;;;;5.05;3.00;;;16.60;99.90;;;;;;5022760;28;20100;-83
2023/04/18 10:31:26;;;;;;;3.67;2.63;;;16.60;99.90;;;;;;5022693;28;20040;-82
2023/04/18 10:33:55;;;;;;;4.03;2.70;;;17.10;99.90;;;;;;5018470;28;20053;-83
2023/04/18 10:36:21;;;;;;;3.30;2.45;;;18.20;99.90;;;;;;5014577;28;20025;-84
2023/04/18 10:38:50;;;;;;;3.85;2.75;;;19.20;99.90;;;;;;5019982;28;20041;-84
2023/04/18 10:41:32;;;;;;;3.97;2.63;;;19.20;99.90;;;;;;5020590;28;20132;-83
2023/04/18 10:44:14;;;;;;;4.28;3.10;;;19.10;99.90;;;;;;5021777;28;20088;-84
2023/04/18 10:46:51;;;;;;;5.07;3.28;;;18.80;99.90;;;;;;5023457;28;20372;-83
2023/04/18 10:49:22;;;;;;;4.95;3.30;;;18.30;99.90;;;;;;5020182;28;20026;-83
2023/04/18 10:51:50;;;;;;;4.95;3.22;;;17.70;99.90;;;;;;5020570;28;20174;-80
2023/04/18 10:54:36;;;;;;;4.85;3.58;;;16.90;99.90;;;;;;5020733;28;20048;-82
2023/04/18 10:57:03;;;;;;;6.75;3.67;;;16.30;99.90;;;;;;5023992;28;20120;-82
2023/04/18 10:59:30;;;;;;;5.38;3.83;;;15.70;99.90;;;;;;5022231;28;20028;-83
2023/04/18 11:02:04;;;;;;;5.43;3.95;;;15.10;99.90;;;;;;5020811;28;20388;-83
2023/04/18 11:04:29;;;;;;;5.35;3.90;;;14.70;99.90;;;;;;5024704;28;20663;-83
2023/04/18 11:06:57;;;;;;;5.18;4.10;;;14.50;99.90;;;;;;5025690;28;20037;-81
2023/04/18 11:09:23;;;;;;;4.55;3.60;;;14.50;99.90;;;;;;5022550;28;20029;-82
2023/04/18 11:12:07;;;;;;;5.53;4.20;;;14.40;99.90;;;;;;5019260;28;20072;-83
2023/04/18 11:14:44;;;;;;;5.50;3.45;;;14.30;99.90;;;;;;5017646;28;20034;-81
2023/04/18 11:17:20;;;;;;;5.32;3.33;;;14.30;99.90;;;;;;5018376;28;20026;-82
2023/04/18 11:19:46;;;;;;;5.13;3.95;;;14.50;99.90;;;;;;5020969;28;20036;-82
2023/04/18 11:22:13;;;;;;;6.47;4.40;;;14.50;99.90;;;;;;5020974;28;20468;-83
2023/04/18 11:24:39;;;;;;;6.30;4.43;;;14.30;99.90;;;;;;5020208;28;20033;-82
2023/04/18 11:27:07;;;;;;;6.55;4.03;;;14.00;99.90;;;;;;5017312;28;20498;-81
2023/04/18 11:29:33;;;;;;;5.70;4.13;;;13.90;99.90;;;;;;5015491;28;20483;-81
2023/04/18 11:31:58;;;;;;;5.30;3.90;;;13.90;99.90;;;;;;5017094;28;20033;-82
2023/04/18 11:34:29;;;;;;;6.30;4.35;;;13.80;99.90;;;;;;5014794;28;20033;-82
2023/04/18 11:36:58;;;;;;;5.25;3.15;;;13.90;99.90;;;;;;5017470;28;20032;-82
2023/04/18 11:39:24;;;;;;;5.07;3.50;;;14.10;99.90;;;;;;5016112;28;20395;-82
2023/04/18 11:41:50;;;;;;;6.50;4.75;;;14.30;99.90;;;;;;5021845;28;20124;-83
2023/04/18 11:44:25;;;;;;;7.32;4.85;;;14.30;99.90;;;;;;5014798;28;20025;-81
2023/04/18 11:46:54;;;;;;;6.65;4.78;;;14.30;99.90;;;;;;5016209;28;20029;-82
2023/04/18 11:49:30;;;;;;;6.88;4.82;;;14.10;99.90;;;;;;5014399;28;20555;-80
2023/04/18 11:51:56;;;;;;;6.88;4.82;;;14.00;99.90;;;;;;5015750;28;20140;-83
2023/04/18 11:54:41;;;;;;;7.13;5.07;;;13.90;99.90;;;;;;5010930;28;20446;-80
2023/04/18 11:57:28;;;;;;;6.03;4.18;;;14.00;99.90;;;;;;5017161;28;20036;-80
2023/04/18 11:59:57;;;;;;;5.90;4.20;;;14.10;99.90;;;;;;5019141;28;20037;-82
2023/04/18 12:02:44;;;;;;;6.43;4.65;;;14.00;99.90;;;;;;5013033;28;20041;-82
2023/04/18 12:05:12;;;;;;;7.65;5.07;;;14.00;99.90;;;;;;5014742;28;20036;-82
2023/04/18 12:07:39;;;;;;;6.93;4.75;;;13.90;99.90;;;;;;5015329;28;20021;-81
2023/04/18 12:10:18;;;;;;;6.32;4.72;;;13.90;99.90;;;;;;5014653;28;20542;-82
2023/04/18 12:12:47;;;;;;;5.20;3.90;;;13.80;99.90;;;;;;5017659;28;20055;-82
2023/04/18 12:15:15;;;;;;;5.95;4.63;;;13.80;99.90;;;;;;5016034;28;20026;-82
2023/04/18 12:17:47;;;;;;;6.18;4.78;;;14.00;99.90;;;;;;5013155;28;20141;-81
2023/04/18 12:20:14;;;;;;;6.57;4.70;;;14.20;99.90;;;;;;5015676;28;20025;-82
2023/04/18 12:22:41;;;;;;;6.82;5.38;;;14.30;99.90;;;;;;5017707;28;20029;-81
2023/04/18 12:25:27;;;;;;;7.20;5.15;;;14.30;99.90;;;;;;5017469;28;20583;-82
2023/04/18 12:27:59;;;;;;;7.50;6.03;;;14.30;99.90;;;;;;5014940;28;20041;-81
2023/04/18 12:30:28;;;;;;;6.85;5.18;;;14.40;99.90;;;;;;5015762;28;20040;-81
2023/04/18 12:33:00;;;;;;;7.00;5.20;;;14.80;99.90;;;;;;5013447;28;20026;-82
2023/04/18 12:35:25;;;;;;;6.93;5.40;;;15.20;99.90;;;;;;5012280;28;20041;-84
2023/04/18 12:37:53;;;;;;;7.65;5.43;;;16.20;99.90;;;;;;5015289;28;20038;-82
2023/04/18 12:40:19;;;;;;;6.43;5.25;;;17.10;99.90;;;;;;5015258;28;20022;-83
2023/04/18 12:42:46;;;;;;;5.40;4.20;;;17.70;99.90;;;;;;5015972;28;20049;-81
2023/04/18 12:45:13;;;;;;;7.72;5.50;;;18.60;99.90;;;;;;5013986;28;20036;-81
2023/04/18 12:47:40;;;;;;;7.35;5.53;;;18.90;99.90;;;;;;5012749;28;20022;-82
2023/04/18 12:50:10;;;;;;;7.55;5.60;;;18.80;99.90;;;;;;5014721;28;20037;-84